sensor_id;sensor_type;location;lat;lon;timestamp;temperature;humidity
47660;DHT22;33403;43.608;1.458;2023-09-08T00:02:27;22.50;73.50
47660;DHT22;33403;43.608;1.458;2023-09-08T00:04:54;22.50;73.30
47660;DHT22;33403;43.608;1.458;2023-09-08T00:07:20;22.40;73.00
47660;DHT22;33403;43.608;1.458;2023-09-08T00:09:46;22.50;73.50
47660;DHT22;33403;43.608;1.458;2023-09-08T00:12:12;22.40;72.80
47660;DHT22;33403;43.608;1.458;2023-09-08T00:14:38;22.50;73.20
47660;DHT22;33403;43.608;1.458;2023-09-08T00:17:04;22.40;73.40
47660;DHT22;33403;43.608;1.458;2023-09-08T00:19:30;22.40;74.20
47660;DHT22;33403;43.608;1.458;2023-09-08T00:21:56;22.30;74.20
47660;DHT22;33403;43.608;1.458;2023-09-08T00:24:22;22.30;73.50
47660;DHT22;33403;43.608;1.458;2023-09-08T00:26:48;22.30;73.40
47660;DHT22;33403;43.608;1.458;2023-09-08T00:29:13;22.20;73.30
47660;DHT22;33403;43.608;1.458;2023-09-08T00:31:39;22.20;74.70
47660;DHT22;33403;43.608;1.458;2023-09-08T00:34:05;22.10;75.30
47660;DHT22;33403;43.608;1.458;2023-09-08T00:36:32;22.10;75.60
47660;DHT22;33403;43.608;1.458;2023-09-08T00:38:57;22.00;75.90
47660;DHT22;33403;43.608;1.458;2023-09-08T00:41:23;22.00;76.40
47660;DHT22;33403;43.608;1.458;2023-09-08T00:43:51;22.00;76.00
47660;DHT22;33403;43.608;1.458;2023-09-08T00:46:17;22.10;76.40
47660;DHT22;33403;43.608;1.458;2023-09-08T00:48:43;22.10;76.20
47660;DHT22;33403;43.608;1.458;2023-09-08T00:51:09;22.00;76.40
47660;DHT22;33403;43.608;1.458;2023-09-08T00:53:38;22.00;75.00
47660;DHT22;33403;43.608;1.458;2023-09-08T00:56:04;22.00;76.20
47660;DHT22;33403;43.608;1.458;2023-09-08T00:58:30;22.00;76.40
47660;DHT22;33403;43.608;1.458;2023-09-08T01:00:57;22.00;76.70
47660;DHT22;33403;43.608;1.458;2023-09-08T01:03:24;22.00;77.40
47660;DHT22;33403;43.608;1.458;2023-09-08T01:05:50;21.90;77.70
47660;DHT22;33403;43.608;1.458;2023-09-08T01:08:17;21.90;77.60
47660;DHT22;33403;43.608;1.458;2023-09-08T01:10:43;21.90;76.90
47660;DHT22;33403;43.608;1.458;2023-09-08T01:13:09;21.90;76.80
47660;DHT22;33403;43.608;1.458;2023-09-08T01:15:35;21.90;76.90
47660;DHT22;33403;43.608;1.458;2023-09-08T01:18:00;21.90;76.90
47660;DHT22;33403;43.608;1.458;2023-09-08T01:24:21;21.80;77.80
47660;DHT22;33403;43.608;1.458;2023-09-08T01:26:28;21.70;79.40
47660;DHT22;33403;43.608;1.458;2023-09-08T01:28:56;21.70;78.70
47660;DHT22;33403;43.608;1.458;2023-09-08T01:31:22;21.70;79.20
47660;DHT22;33403;43.608;1.458;2023-09-08T01:33:48;21.60;79.60
47660;DHT22;33403;43.608;1.458;2023-09-08T01:36:14;21.60;79.40
47660;DHT22;33403;43.608;1.458;2023-09-08T01:38:40;21.70;79.80
47660;DHT22;33403;43.608;1.458;2023-09-08T01:41:05;21.70;80.00
47660;DHT22;33403;43.608;1.458;2023-09-08T01:43:31;21.60;79.70
47660;DHT22;33403;43.608;1.458;2023-09-08T01:45:56;21.60;78.80
47660;DHT22;33403;43.608;1.458;2023-09-08T01:48:22;21.60;79.60
47660;DHT22;33403;43.608;1.458;2023-09-08T01:50:48;21.60;79.90
47660;DHT22;33403;43.608;1.458;2023-09-08T01:53:13;21.60;79.10
47660;DHT22;33403;43.608;1.458;2023-09-08T01:55:39;21.50;80.20
47660;DHT22;33403;43.608;1.458;2023-09-08T01:58:05;21.60;80.40
47660;DHT22;33403;43.608;1.458;2023-09-08T02:00:30;21.60;80.70
47660;DHT22;33403;43.608;1.458;2023-09-08T02:02:56;21.50;81.40
47660;DHT22;33403;43.608;1.458;2023-09-08T02:05:22;21.50;81.60
47660;DHT22;33403;43.608;1.458;2023-09-08T02:07:47;21.50;81.90
47660;DHT22;33403;43.608;1.458;2023-09-08T02:10:13;21.50;81.40
47660;DHT22;33403;43.608;1.458;2023-09-08T02:12:39;21.40;82.30
47660;DHT22;33403;43.608;1.458;2023-09-08T02:15:05;21.40;82.60
47660;DHT22;33403;43.608;1.458;2023-09-08T02:17:31;21.30;82.90
47660;DHT22;33403;43.608;1.458;2023-09-08T02:19:56;21.40;82.80
47660;DHT22;33403;43.608;1.458;2023-09-08T02:22:22;21.30;82.90
47660;DHT22;33403;43.608;1.458;2023-09-08T02:24:48;21.40;82.30
47660;DHT22;33403;43.608;1.458;2023-09-08T02:27:13;21.40;82.30
47660;DHT22;33403;43.608;1.458;2023-09-08T02:29:39;21.40;83.60
47660;DHT22;33403;43.608;1.458;2023-09-08T02:32:05;21.40;82.80
47660;DHT22;33403;43.608;1.458;2023-09-08T02:34:34;21.30;83.20
47660;DHT22;33403;43.608;1.458;2023-09-08T02:37:02;21.20;84.00
47660;DHT22;33403;43.608;1.458;2023-09-08T02:39:27;21.20;83.90
47660;DHT22;33403;43.608;1.458;2023-09-08T02:41:53;21.20;83.30
47660;DHT22;33403;43.608;1.458;2023-09-08T02:44:20;21.20;83.30
47660;DHT22;33403;43.608;1.458;2023-09-08T02:46:47;21.20;82.80
47660;DHT22;33403;43.608;1.458;2023-09-08T02:49:13;21.20;82.50
47660;DHT22;33403;43.608;1.458;2023-09-08T02:51:38;21.20;83.00
47660;DHT22;33403;43.608;1.458;2023-09-08T02:54:04;21.20;83.90
47660;DHT22;33403;43.608;1.458;2023-09-08T02:56:30;21.10;83.80
47660;DHT22;33403;43.608;1.458;2023-09-08T02:58:55;21.00;83.90
47660;DHT22;33403;43.608;1.458;2023-09-08T03:01:21;21.10;83.90
47660;DHT22;33403;43.608;1.458;2023-09-08T03:03:48;21.00;83.90
47660;DHT22;33403;43.608;1.458;2023-09-08T03:06:15;21.00;84.60
47660;DHT22;33403;43.608;1.458;2023-09-08T03:08:41;21.00;84.60
47660;DHT22;33403;43.608;1.458;2023-09-08T03:11:08;21.00;85.10
47660;DHT22;33403;43.608;1.458;2023-09-08T03:13:34;20.90;85.50
47660;DHT22;33403;43.608;1.458;2023-09-08T03:16:04;20.90;85.70
47660;DHT22;33403;43.608;1.458;2023-09-08T03:18:31;20.90;85.70
47660;DHT22;33403;43.608;1.458;2023-09-08T03:20:58;20.90;86.20
47660;DHT22;33403;43.608;1.458;2023-09-08T03:23:24;20.80;85.90
47660;DHT22;33403;43.608;1.458;2023-09-08T03:25:50;20.80;86.20
47660;DHT22;33403;43.608;1.458;2023-09-08T03:28:16;20.80;86.70
47660;DHT22;33403;43.608;1.458;2023-09-08T03:30:41;20.80;86.80
47660;DHT22;33403;43.608;1.458;2023-09-08T03:33:07;20.80;87.10
47660;DHT22;33403;43.608;1.458;2023-09-08T03:35:32;20.80;87.30
47660;DHT22;33403;43.608;1.458;2023-09-08T03:37:58;20.80;87.10
47660;DHT22;33403;43.608;1.458;2023-09-08T03:40:24;20.80;87.50
47660;DHT22;33403;43.608;1.458;2023-09-08T03:42:50;20.70;86.80
47660;DHT22;33403;43.608;1.458;2023-09-08T03:45:15;20.60;87.10
47660;DHT22;33403;43.608;1.458;2023-09-08T03:47:41;20.60;87.40
47660;DHT22;33403;43.608;1.458;2023-09-08T03:50:08;20.60;87.50
47660;DHT22;33403;43.608;1.458;2023-09-08T03:52:33;20.70;87.60
47660;DHT22;33403;43.608;1.458;2023-09-08T03:54:59;20.70;88.40
47660;DHT22;33403;43.608;1.458;2023-09-08T03:57:25;20.70;88.70
47660;DHT22;33403;43.608;1.458;2023-09-08T03:59:51;20.70;89.20
47660;DHT22;33403;43.608;1.458;2023-09-08T04:02:16;20.70;88.70
47660;DHT22;33403;43.608;1.458;2023-09-08T04:04:42;20.60;87.60
47660;DHT22;33403;43.608;1.458;2023-09-08T04:07:07;20.60;89.10
47660;DHT22;33403;43.608;1.458;2023-09-08T04:09:33;20.60;88.90
47660;DHT22;33403;43.608;1.458;2023-09-08T04:11:59;20.60;90.30
47660;DHT22;33403;43.608;1.458;2023-09-08T04:14:24;20.60;90.40
47660;DHT22;33403;43.608;1.458;2023-09-08T04:16:53;20.60;90.60
47660;DHT22;33403;43.608;1.458;2023-09-08T04:19:18;20.50;90.60
47660;DHT22;33403;43.608;1.458;2023-09-08T04:21:44;20.60;90.90
47660;DHT22;33403;43.608;1.458;2023-09-08T04:24:10;20.60;90.50
47660;DHT22;33403;43.608;1.458;2023-09-08T04:26:36;20.60;90.70
47660;DHT22;33403;43.608;1.458;2023-09-08T04:29:02;20.60;90.30
47660;DHT22;33403;43.608;1.458;2023-09-08T04:31:27;20.60;90.40
47660;DHT22;33403;43.608;1.458;2023-09-08T04:33:54;20.60;90.80
47660;DHT22;33403;43.608;1.458;2023-09-08T04:36:19;20.50;90.80
47660;DHT22;33403;43.608;1.458;2023-09-08T04:38:45;20.50;90.80
47660;DHT22;33403;43.608;1.458;2023-09-08T04:41:11;20.50;90.90
47660;DHT22;33403;43.608;1.458;2023-09-08T04:43:36;20.50;91.30
47660;DHT22;33403;43.608;1.458;2023-09-08T04:46:02;20.60;91.20
47660;DHT22;33403;43.608;1.458;2023-09-08T04:48:29;20.60;91.50
47660;DHT22;33403;43.608;1.458;2023-09-08T04:50:56;20.50;91.50
47660;DHT22;33403;43.608;1.458;2023-09-08T04:53:21;20.60;91.90
47660;DHT22;33403;43.608;1.458;2023-09-08T04:55:47;20.60;91.80
47660;DHT22;33403;43.608;1.458;2023-09-08T04:58:13;20.50;91.30
47660;DHT22;33403;43.608;1.458;2023-09-08T05:00:38;20.50;91.70
47660;DHT22;33403;43.608;1.458;2023-09-08T05:03:05;20.50;91.60
47660;DHT22;33403;43.608;1.458;2023-09-08T05:05:31;20.60;91.60
47660;DHT22;33403;43.608;1.458;2023-09-08T05:07:56;20.50;92.00
47660;DHT22;33403;43.608;1.458;2023-09-08T05:10:23;20.50;91.60
47660;DHT22;33403;43.608;1.458;2023-09-08T05:12:48;20.60;91.10
47660;DHT22;33403;43.608;1.458;2023-09-08T05:15:15;20.50;91.40
47660;DHT22;33403;43.608;1.458;2023-09-08T05:17:41;20.50;91.60
47660;DHT22;33403;43.608;1.458;2023-09-08T05:20:08;20.50;91.00
47660;DHT22;33403;43.608;1.458;2023-09-08T05:22:34;20.50;91.60
47660;DHT22;33403;43.608;1.458;2023-09-08T05:24:59;20.50;91.80
47660;DHT22;33403;43.608;1.458;2023-09-08T05:27:25;20.50;91.50
47660;DHT22;33403;43.608;1.458;2023-09-08T05:29:50;20.60;91.60
47660;DHT22;33403;43.608;1.458;2023-09-08T05:32:16;20.60;91.40
47660;DHT22;33403;43.608;1.458;2023-09-08T05:34:42;20.60;91.60
47660;DHT22;33403;43.608;1.458;2023-09-08T05:37:07;20.60;91.20
47660;DHT22;33403;43.608;1.458;2023-09-08T05:39:34;20.60;91.10
47660;DHT22;33403;43.608;1.458;2023-09-08T05:41:59;20.60;91.50
47660;DHT22;33403;43.608;1.458;2023-09-08T05:44:25;20.60;92.10
47660;DHT22;33403;43.608;1.458;2023-09-08T05:46:51;20.60;91.70
47660;DHT22;33403;43.608;1.458;2023-09-08T05:49:16;20.60;91.80
47660;DHT22;33403;43.608;1.458;2023-09-08T05:51:43;20.60;91.10
47660;DHT22;33403;43.608;1.458;2023-09-08T05:54:09;20.60;90.70
47660;DHT22;33403;43.608;1.458;2023-09-08T05:56:36;20.70;91.50
47660;DHT22;33403;43.608;1.458;2023-09-08T05:59:02;20.70;91.60
47660;DHT22;33403;43.608;1.458;2023-09-08T06:01:28;20.70;90.60
47660;DHT22;33403;43.608;1.458;2023-09-08T06:03:54;20.70;91.00
47660;DHT22;33403;43.608;1.458;2023-09-08T06:06:21;20.70;90.90
47660;DHT22;33403;43.608;1.458;2023-09-08T06:08:47;20.70;91.20
47660;DHT22;33403;43.608;1.458;2023-09-08T06:11:12;20.70;91.00
47660;DHT22;33403;43.608;1.458;2023-09-08T06:13:38;20.70;90.80
47660;DHT22;33403;43.608;1.458;2023-09-08T06:16:04;20.80;91.40
47660;DHT22;33403;43.608;1.458;2023-09-08T06:18:29;20.80;90.70
47660;DHT22;33403;43.608;1.458;2023-09-08T06:20:56;20.80;90.60
47660;DHT22;33403;43.608;1.458;2023-09-08T06:23:21;20.90;90.50
47660;DHT22;33403;43.608;1.458;2023-09-08T06:25:48;20.80;90.90
47660;DHT22;33403;43.608;1.458;2023-09-08T06:28:14;20.80;91.00
47660;DHT22;33403;43.608;1.458;2023-09-08T06:30:39;20.80;90.50
47660;DHT22;33403;43.608;1.458;2023-09-08T06:33:10;20.90;91.10
47660;DHT22;33403;43.608;1.458;2023-09-08T06:35:36;20.90;92.00
47660;DHT22;33403;43.608;1.458;2023-09-08T06:38:01;20.90;91.90
47660;DHT22;33403;43.608;1.458;2023-09-08T06:40:29;20.90;92.10
47660;DHT22;33403;43.608;1.458;2023-09-08T06:42:55;20.90;91.90
47660;DHT22;33403;43.608;1.458;2023-09-08T06:45:20;20.90;92.90
47660;DHT22;33403;43.608;1.458;2023-09-08T06:47:46;20.90;91.40
47660;DHT22;33403;43.608;1.458;2023-09-08T06:50:12;20.90;91.70
47660;DHT22;33403;43.608;1.458;2023-09-08T06:52:37;21.00;91.00
47660;DHT22;33403;43.608;1.458;2023-09-08T06:55:03;21.00;91.30
47660;DHT22;33403;43.608;1.458;2023-09-08T06:57:30;21.00;91.80
47660;DHT22;33403;43.608;1.458;2023-09-08T06:59:56;21.10;91.60
47660;DHT22;33403;43.608;1.458;2023-09-08T07:02:21;21.10;92.60
47660;DHT22;33403;43.608;1.458;2023-09-08T07:04:47;21.10;91.70
47660;DHT22;33403;43.608;1.458;2023-09-08T07:07:12;21.20;92.00
47660;DHT22;33403;43.608;1.458;2023-09-08T07:09:39;21.20;91.10
47660;DHT22;33403;43.608;1.458;2023-09-08T07:12:05;21.20;91.70
47660;DHT22;33403;43.608;1.458;2023-09-08T07:14:34;21.30;90.70
47660;DHT22;33403;43.608;1.458;2023-09-08T07:17:00;21.40;90.80
47660;DHT22;33403;43.608;1.458;2023-09-08T07:19:26;21.40;89.80
47660;DHT22;33403;43.608;1.458;2023-09-08T07:21:52;21.50;90.40
47660;DHT22;33403;43.608;1.458;2023-09-08T07:24:18;21.50;90.40
47660;DHT22;33403;43.608;1.458;2023-09-08T07:26:44;21.60;90.60
47660;DHT22;33403;43.608;1.458;2023-09-08T07:29:09;21.70;88.70
47660;DHT22;33403;43.608;1.458;2023-09-08T07:31:35;21.80;88.20
47660;DHT22;33403;43.608;1.458;2023-09-08T07:34:01;21.80;88.30
47660;DHT22;33403;43.608;1.458;2023-09-08T07:36:27;21.80;88.40
47660;DHT22;33403;43.608;1.458;2023-09-08T07:38:52;22.00;88.00
47660;DHT22;33403;43.608;1.458;2023-09-08T07:41:18;22.00;90.00
47660;DHT22;33403;43.608;1.458;2023-09-08T07:43:44;22.00;88.70
47660;DHT22;33403;43.608;1.458;2023-09-08T07:46:11;22.00;89.10
47660;DHT22;33403;43.608;1.458;2023-09-08T07:48:36;22.10;85.30
47660;DHT22;33403;43.608;1.458;2023-09-08T07:51:02;22.30;84.90
47660;DHT22;33403;43.608;1.458;2023-09-08T07:53:28;22.40;84.40
47660;DHT22;33403;43.608;1.458;2023-09-08T07:55:54;22.50;83.20
47660;DHT22;33403;43.608;1.458;2023-09-08T07:58:19;22.50;82.20
47660;DHT22;33403;43.608;1.458;2023-09-08T08:00:45;22.70;81.10
47660;DHT22;33403;43.608;1.458;2023-09-08T08:03:11;22.90;78.80
47660;DHT22;33403;43.608;1.458;2023-09-08T08:05:36;23.10;76.60
47660;DHT22;33403;43.608;1.458;2023-09-08T08:08:02;23.20;76.30
47660;DHT22;33403;43.608;1.458;2023-09-08T08:10:28;23.20;75.90
47660;DHT22;33403;43.608;1.458;2023-09-08T08:12:53;23.30;75.20
47660;DHT22;33403;43.608;1.458;2023-09-08T08:15:20;23.40;74.90
47660;DHT22;33403;43.608;1.458;2023-09-08T08:17:49;23.30;75.80
47660;DHT22;33403;43.608;1.458;2023-09-08T08:20:14;23.40;74.60
47660;DHT22;33403;43.608;1.458;2023-09-08T08:22:44;23.50;73.60
47660;DHT22;33403;43.608;1.458;2023-09-08T08:25:13;23.60;73.60
47660;DHT22;33403;43.608;1.458;2023-09-08T08:27:39;23.70;72.40
47660;DHT22;33403;43.608;1.458;2023-09-08T08:30:06;23.90;71.50
47660;DHT22;33403;43.608;1.458;2023-09-08T08:32:33;24.00;71.60
47660;DHT22;33403;43.608;1.458;2023-09-08T08:34:59;23.90;72.70
47660;DHT22;33403;43.608;1.458;2023-09-08T08:37:25;23.90;72.00
47660;DHT22;33403;43.608;1.458;2023-09-08T08:39:50;24.10;70.90
47660;DHT22;33403;43.608;1.458;2023-09-08T08:42:16;24.20;70.00
47660;DHT22;33403;43.608;1.458;2023-09-08T08:44:42;24.40;69.30
47660;DHT22;33403;43.608;1.458;2023-09-08T08:47:10;24.40;69.80
47660;DHT22;33403;43.608;1.458;2023-09-08T08:49:36;24.50;69.50
47660;DHT22;33403;43.608;1.458;2023-09-08T08:52:03;24.50;69.70
47660;DHT22;33403;43.608;1.458;2023-09-08T08:54:35;24.60;69.00
47660;DHT22;33403;43.608;1.458;2023-09-08T08:57:03;24.70;68.00
47660;DHT22;33403;43.608;1.458;2023-09-08T08:59:30;24.60;70.20
47660;DHT22;33403;43.608;1.458;2023-09-08T09:01:57;24.70;68.90
47660;DHT22;33403;43.608;1.458;2023-09-08T09:04:24;24.90;68.70
47660;DHT22;33403;43.608;1.458;2023-09-08T09:06:50;24.90;68.50
47660;DHT22;33403;43.608;1.458;2023-09-08T09:09:16;25.00;68.40
47660;DHT22;33403;43.608;1.458;2023-09-08T09:11:42;24.90;68.80
47660;DHT22;33403;43.608;1.458;2023-09-08T09:14:08;25.00;68.20
47660;DHT22;33403;43.608;1.458;2023-09-08T09:16:43;25.20;67.50
47660;DHT22;33403;43.608;1.458;2023-09-08T09:19:10;25.30;66.50
47660;DHT22;33403;43.608;1.458;2023-09-08T09:21:44;25.40;66.30
47660;DHT22;33403;43.608;1.458;2023-09-08T09:24:31;25.50;65.50
47660;DHT22;33403;43.608;1.458;2023-09-08T09:27:03;25.50;65.00
47660;DHT22;33403;43.608;1.458;2023-09-08T09:29:32;25.50;65.50
47660;DHT22;33403;43.608;1.458;2023-09-08T09:32:06;25.50;66.20
47660;DHT22;33403;43.608;1.458;2023-09-08T09:34:35;25.50;66.90
47660;DHT22;33403;43.608;1.458;2023-09-08T09:37:01;25.60;66.50
47660;DHT22;33403;43.608;1.458;2023-09-08T09:39:27;25.60;65.80
47660;DHT22;33403;43.608;1.458;2023-09-08T09:41:56;25.70;65.30
47660;DHT22;33403;43.608;1.458;2023-09-08T09:44:23;25.80;65.40
47660;DHT22;33403;43.608;1.458;2023-09-08T09:46:52;25.90;65.30
47660;DHT22;33403;43.608;1.458;2023-09-08T09:49:18;25.80;64.90
47660;DHT22;33403;43.608;1.458;2023-09-08T09:51:49;26.10;63.70
47660;DHT22;33403;43.608;1.458;2023-09-08T09:54:16;26.20;63.00
47660;DHT22;33403;43.608;1.458;2023-09-08T09:56:43;26.30;61.90
47660;DHT22;33403;43.608;1.458;2023-09-08T09:59:10;26.40;62.20
47660;DHT22;33403;43.608;1.458;2023-09-08T10:01:37;26.60;60.50
47660;DHT22;33403;43.608;1.458;2023-09-08T10:04:06;26.60;60.50
47660;DHT22;33403;43.608;1.458;2023-09-08T10:06:36;26.60;59.90
47660;DHT22;33403;43.608;1.458;2023-09-08T10:09:04;26.60;60.10
47660;DHT22;33403;43.608;1.458;2023-09-08T10:11:50;26.70;60.30
47660;DHT22;33403;43.608;1.458;2023-09-08T10:14:20;26.70;60.30
47660;DHT22;33403;43.608;1.458;2023-09-08T10:16:47;26.70;59.90
47660;DHT22;33403;43.608;1.458;2023-09-08T10:19:18;26.90;59.10
47660;DHT22;33403;43.608;1.458;2023-09-08T10:21:47;26.90;59.20
47660;DHT22;33403;43.608;1.458;2023-09-08T10:24:24;27.00;59.30
47660;DHT22;33403;43.608;1.458;2023-09-08T10:26:59;27.10;58.90
47660;DHT22;33403;43.608;1.458;2023-09-08T10:29:27;27.10;59.10
47660;DHT22;33403;43.608;1.458;2023-09-08T10:31:54;26.90;60.30
47660;DHT22;33403;43.608;1.458;2023-09-08T10:34:21;27.10;59.50
47660;DHT22;33403;43.608;1.458;2023-09-08T10:36:48;27.10;60.20
47660;DHT22;33403;43.608;1.458;2023-09-08T10:39:33;27.10;59.10
47660;DHT22;33403;43.608;1.458;2023-09-08T10:44:59;27.30;58.90
47660;DHT22;33403;43.608;1.458;2023-09-08T10:47:54;27.40;58.00
47660;DHT22;33403;43.608;1.458;2023-09-08T10:50:35;27.30;59.30
47660;DHT22;33403;43.608;1.458;2023-09-08T10:55:48;27.50;57.40
47660;DHT22;33403;43.608;1.458;2023-09-08T10:58:34;27.60;57.70
47660;DHT22;33403;43.608;1.458;2023-09-08T11:01:05;27.40;59.10
47660;DHT22;33403;43.608;1.458;2023-09-08T11:06:03;27.50;58.30
47660;DHT22;33403;43.608;1.458;2023-09-08T11:08:29;27.60;58.10
47660;DHT22;33403;43.608;1.458;2023-09-08T11:10:56;27.80;57.50
47660;DHT22;33403;43.608;1.458;2023-09-08T11:13:22;27.80;57.00
47660;DHT22;33403;43.608;1.458;2023-09-08T11:15:50;28.00;56.80
47660;DHT22;33403;43.608;1.458;2023-09-08T11:18:16;28.00;56.70
47660;DHT22;33403;43.608;1.458;2023-09-08T11:20:41;28.00;56.70
47660;DHT22;33403;43.608;1.458;2023-09-08T11:23:10;27.80;57.10
47660;DHT22;33403;43.608;1.458;2023-09-08T11:25:36;27.90;57.30
47660;DHT22;33403;43.608;1.458;2023-09-08T11:28:01;27.80;57.90
47660;DHT22;33403;43.608;1.458;2023-09-08T11:30:28;27.70;58.10
47660;DHT22;33403;43.608;1.458;2023-09-08T11:32:54;27.90;57.10
47660;DHT22;33403;43.608;1.458;2023-09-08T11:35:20;27.90;57.70
47660;DHT22;33403;43.608;1.458;2023-09-08T11:37:46;27.90;58.40
47660;DHT22;33403;43.608;1.458;2023-09-08T11:40:12;28.00;57.50
47660;DHT22;33403;43.608;1.458;2023-09-08T11:42:43;28.20;56.40
47660;DHT22;33403;43.608;1.458;2023-09-08T11:45:13;28.10;56.70
47660;DHT22;33403;43.608;1.458;2023-09-08T11:47:41;28.10;57.10
47660;DHT22;33403;43.608;1.458;2023-09-08T11:50:11;28.10;56.90
47660;DHT22;33403;43.608;1.458;2023-09-08T11:52:43;28.20;56.80
47660;DHT22;33403;43.608;1.458;2023-09-08T11:55:10;28.20;57.30
47660;DHT22;33403;43.608;1.458;2023-09-08T11:57:37;28.10;57.30
47660;DHT22;33403;43.608;1.458;2023-09-08T12:00:04;28.20;57.50
47660;DHT22;33403;43.608;1.458;2023-09-08T12:02:37;28.50;56.40
47660;DHT22;33403;43.608;1.458;2023-09-08T12:05:03;28.70;55.80
47660;DHT22;33403;43.608;1.458;2023-09-08T12:07:29;28.70;55.00
47660;DHT22;33403;43.608;1.458;2023-09-08T12:09:55;28.60;56.20
47660;DHT22;33403;43.608;1.458;2023-09-08T12:12:21;28.50;56.10
47660;DHT22;33403;43.608;1.458;2023-09-08T12:14:47;28.60;56.00
47660;DHT22;33403;43.608;1.458;2023-09-08T12:17:12;28.60;56.40
47660;DHT22;33403;43.608;1.458;2023-09-08T12:19:42;28.60;56.70
47660;DHT22;33403;43.608;1.458;2023-09-08T12:22:08;28.50;56.10
47660;DHT22;33403;43.608;1.458;2023-09-08T12:27:22;28.60;55.60
47660;DHT22;33403;43.608;1.458;2023-09-08T12:30:00;28.70;56.10
47660;DHT22;33403;43.608;1.458;2023-09-08T12:32:29;28.70;56.30
47660;DHT22;33403;43.608;1.458;2023-09-08T12:34:55;28.60;56.30
47660;DHT22;33403;43.608;1.458;2023-09-08T12:37:25;28.80;55.70
47660;DHT22;33403;43.608;1.458;2023-09-08T12:39:53;28.70;56.60
47660;DHT22;33403;43.608;1.458;2023-09-08T12:42:19;28.80;56.60
47660;DHT22;33403;43.608;1.458;2023-09-08T12:44:45;28.60;56.20
47660;DHT22;33403;43.608;1.458;2023-09-08T12:47:11;28.60;56.60
47660;DHT22;33403;43.608;1.458;2023-09-08T12:49:40;28.60;56.00
47660;DHT22;33403;43.608;1.458;2023-09-08T12:52:06;28.60;56.60
47660;DHT22;33403;43.608;1.458;2023-09-08T12:54:32;28.50;56.30
47660;DHT22;33403;43.608;1.458;2023-09-08T12:56:58;28.70;56.40
47660;DHT22;33403;43.608;1.458;2023-09-08T12:59:23;28.80;54.80
47660;DHT22;33403;43.608;1.458;2023-09-08T13:01:49;29.00;55.10
47660;DHT22;33403;43.608;1.458;2023-09-08T13:04:14;29.10;54.20
47660;DHT22;33403;43.608;1.458;2023-09-08T13:06:40;29.10;54.10
47660;DHT22;33403;43.608;1.458;2023-09-08T13:09:06;29.00;54.80
47660;DHT22;33403;43.608;1.458;2023-09-08T13:11:32;29.10;54.30
47660;DHT22;33403;43.608;1.458;2023-09-08T13:13:58;29.00;54.40
47660;DHT22;33403;43.608;1.458;2023-09-08T13:16:24;28.90;55.20
47660;DHT22;33403;43.608;1.458;2023-09-08T13:18:49;28.70;57.70
47660;DHT22;33403;43.608;1.458;2023-09-08T13:21:16;28.80;54.70
47660;DHT22;33403;43.608;1.458;2023-09-08T13:23:42;28.70;56.30
47660;DHT22;33403;43.608;1.458;2023-09-08T13:26:07;28.80;55.20
47660;DHT22;33403;43.608;1.458;2023-09-08T13:28:33;28.90;53.30
47660;DHT22;33403;43.608;1.458;2023-09-08T13:30:59;28.90;53.90
47660;DHT22;33403;43.608;1.458;2023-09-08T13:33:24;29.10;53.20
47660;DHT22;33403;43.608;1.458;2023-09-08T13:35:50;29.00;54.20
47660;DHT22;33403;43.608;1.458;2023-09-08T13:38:15;29.20;52.70
47660;DHT22;33403;43.608;1.458;2023-09-08T13:40:41;29.20;52.20
47660;DHT22;33403;43.608;1.458;2023-09-08T13:43:07;29.00;53.10
47660;DHT22;33403;43.608;1.458;2023-09-08T13:45:33;29.10;52.90
47660;DHT22;33403;43.608;1.458;2023-09-08T13:47:58;29.00;53.40
47660;DHT22;33403;43.608;1.458;2023-09-08T13:50:24;28.90;53.20
47660;DHT22;33403;43.608;1.458;2023-09-08T13:52:50;29.10;52.40
47660;DHT22;33403;43.608;1.458;2023-09-08T13:55:15;28.90;53.40
47660;DHT22;33403;43.608;1.458;2023-09-08T13:57:41;29.00;53.00
47660;DHT22;33403;43.608;1.458;2023-09-08T14:00:07;29.00;53.40
47660;DHT22;33403;43.608;1.458;2023-09-08T14:02:34;29.30;52.10
47660;DHT22;33403;43.608;1.458;2023-09-08T14:05:00;29.30;52.90
47660;DHT22;33403;43.608;1.458;2023-09-08T14:07:25;29.10;53.10
47660;DHT22;33403;43.608;1.458;2023-09-08T14:09:51;28.90;53.40
47660;DHT22;33403;43.608;1.458;2023-09-08T14:12:16;29.10;51.90
47660;DHT22;33403;43.608;1.458;2023-09-08T14:14:42;29.30;51.50
47660;DHT22;33403;43.608;1.458;2023-09-08T14:17:08;29.50;51.40
47660;DHT22;33403;43.608;1.458;2023-09-08T14:19:33;29.40;51.60
47660;DHT22;33403;43.608;1.458;2023-09-08T14:21:59;29.40;50.90
47660;DHT22;33403;43.608;1.458;2023-09-08T14:24:25;29.30;51.00
47660;DHT22;33403;43.608;1.458;2023-09-08T14:26:51;29.40;50.90
47660;DHT22;33403;43.608;1.458;2023-09-08T14:29:17;29.30;50.70
47660;DHT22;33403;43.608;1.458;2023-09-08T14:31:43;29.30;51.10
47660;DHT22;33403;43.608;1.458;2023-09-08T14:34:09;29.20;51.20
47660;DHT22;33403;43.608;1.458;2023-09-08T14:36:34;29.10;50.20
47660;DHT22;33403;43.608;1.458;2023-09-08T14:39:00;29.00;50.80
47660;DHT22;33403;43.608;1.458;2023-09-08T14:41:26;29.20;50.20
47660;DHT22;33403;43.608;1.458;2023-09-08T14:43:51;29.20;49.90
47660;DHT22;33403;43.608;1.458;2023-09-08T14:46:17;29.20;49.80
47660;DHT22;33403;43.608;1.458;2023-09-08T14:48:43;29.30;49.40
47660;DHT22;33403;43.608;1.458;2023-09-08T14:51:09;29.30;50.00
47660;DHT22;33403;43.608;1.458;2023-09-08T14:53:34;29.30;49.60
47660;DHT22;33403;43.608;1.458;2023-09-08T14:56:00;29.30;48.70
47660;DHT22;33403;43.608;1.458;2023-09-08T14:58:26;29.30;49.30
47660;DHT22;33403;43.608;1.458;2023-09-08T15:00:57;29.30;48.30
47660;DHT22;33403;43.608;1.458;2023-09-08T15:03:25;29.40;47.60
47660;DHT22;33403;43.608;1.458;2023-09-08T15:05:50;29.40;47.50
47660;DHT22;33403;43.608;1.458;2023-09-08T15:08:16;29.30;47.80
47660;DHT22;33403;43.608;1.458;2023-09-08T15:10:42;29.20;50.60
47660;DHT22;33403;43.608;1.458;2023-09-08T15:13:07;29.00;48.90
47660;DHT22;33403;43.608;1.458;2023-09-08T15:15:33;29.10;48.10
47660;DHT22;33403;43.608;1.458;2023-09-08T15:17:58;29.20;47.50
47660;DHT22;33403;43.608;1.458;2023-09-08T15:20:24;29.10;48.70
47660;DHT22;33403;43.608;1.458;2023-09-08T15:22:50;29.10;48.70
47660;DHT22;33403;43.608;1.458;2023-09-08T15:25:15;29.10;48.50
47660;DHT22;33403;43.608;1.458;2023-09-08T15:27:41;29.10;48.00
47660;DHT22;33403;43.608;1.458;2023-09-08T15:30:08;29.10;48.20
47660;DHT22;33403;43.608;1.458;2023-09-08T15:32:34;29.10;47.80
47660;DHT22;33403;43.608;1.458;2023-09-08T15:35:00;29.30;47.60
47660;DHT22;33403;43.608;1.458;2023-09-08T15:37:26;29.20;47.30
47660;DHT22;33403;43.608;1.458;2023-09-08T15:39:51;29.20;46.90
47660;DHT22;33403;43.608;1.458;2023-09-08T15:42:17;29.20;47.30